Terminal Aerodrome Forecast
Issued by NWS

Home | Current Version | Previous Version | Text Only | Print | Product List | Glossary Off
Versions: 1 2 3 4 5 6 7 8 9 10 11 12 13 14 15 16 17 18 19 20 21

000
FTUS43 KBIS 251131
TAFJMS
TAF
KJMS 251131Z 2512/2612 09005KT P6SM SHRA BKN060
     FM251800 07008KT P6SM VCSH OVC030
     FM252200 08007KT P6SM VCTS BKN045CB
     FM260600 34005KT P6SM BKN050
     FM260800 26007KT P6SM BKN025
      AMD NOT SKED=

USA.gov is the U.S. government's official web portal to all federal, state and local government web resources and services.